PWM weather

Portland International Jetport
Portland, Maine, United States

Public forecast

Using degrees Fahrenheit for public forecast. Weather courtesy of forecast.io.

Current aviation weather report (METAR) for Portland International Jetport

Retrieved 2019/12/14 03:51 UTC (45 minutes ago):

KPWM 140351Z 35006KT 2SM -RA BR OVC002 03/01 A3022 RMK AO2 SLP233 P0004 T00280011

Aviation forecast (TAF) for Portland International Jetport

Retrieved 2019-12-14 00:22 UTC (4 hours ago):

TAF KPWM 132320Z 1400/1424 35004KT P6SM -RA BKN010 OVC014 FM141100 07013G23KT 1SM +RA BR OVC003 WS020/12040KT FM141900 12008KT 4SM -RA OVC003 WS020/18045KT FM142100 20006KT P6SM OVC003 WS020/20040KT